Latest Coastal Weather Observations for Larapuna (Eddystone Point)

IDT60701

Issued at 8:52 am EST Friday 19 August 2022 (issued every 10 minutes, with the page automatically refreshed every 10 minutes)

About coastal observations | Map of coastal stations | Coastal observations for TAS | Marine services | Other Formats
Station Details ID: 092045 Name: LARAPUNA (EDDYSTONE POINT) Lat: -40.99 Lon: 148.35 Height: 19.7 m
Data from the previous 72 hours. | See also: Recent months at Larapuna (Eddystone Point)
Date/Time
EST
Wind Sea
Height
m
Swell Vis
km
Cloud Weather Temp
°C
Press
MSL
hPa
Rain since
9am
mm
Dir  Spd
kts
Gust
kts
Height
m
Period
s
Dir
19/08:30am WNW 6 10 - - - - - - - 8.7 1008.9 0.2
19/08:00am WNW 11 15 - - - - - - - 8.6 1008.2 0.2
19/07:30am WNW 12 16 - - - - - - - 8.6 1007.7 0.2
19/07:00am WNW 11 15 - - - - - - - 8.9 1007.2 0.2
19/06:30am WNW 7 9 - - - - - - - 8.6 1006.9 0.2
19/06:00am WNW 12 16 - - - - - - - 9.0 1006.3 0.2
19/05:30am WNW 10 14 - - - - - - - 9.2 1006.1 0.2
19/05:00am WNW 8 12 - - - - - - - 9.4 1006.0 0.2
19/04:30am W 10 14 - - - - - - - 9.6 1005.6 0.2
19/04:00am W 13 18 - - - - - - - 9.7 1005.1 0.2
19/03:30am WNW 13 19 - - - - - - - 10.0 1004.9 0.2
19/03:00am WNW 13 18 - - - - - - - 10.2 1005.2 0.2
19/02:30am WNW 12 16 - - - - - - - 10.3 1004.9 0.2
19/02:00am WNW 14 20 - - - - - - - 10.5 1004.8 0.2
19/01:30am NW 15 20 - - - - - - - 10.6 1004.7 0.2
19/01:00am NW 17 24 - - - - - - - 10.7 1004.6 0.2
19/12:30am NW 16 21 - - - - - - - 10.7 1004.2 0.2
19/12:00am NW 18 23 - - - - - - - 10.9 1004.3 0.2
 
Date/Time
EST
Wind Sea
Height
m
Swell Vis
km
Cloud Weather Temp
°C
Press
MSL
hPa
Rain since
9am
mm
Dir  Spd
kts
Gust
kts
Height
m
Period
s
Dir
18/11:30pm NW 18 22 - - - - - - - 11.2 1004.3 0.2
18/11:00pm WNW 17 23 - - - - - - - 11.3 1004.2 0.2
18/10:30pm WNW 18 26 - - - - - - - 11.3 1004.4 0.2
18/10:09pm WNW 17 27 - - - - - - - 11.4 1004.3 0.2
18/10:00pm WNW 17 24 - - - - - - - 11.4 1004.3 0.2
18/09:33pm WNW 18 28 - - - - - - - 11.5 1004.0 0.2
18/09:30pm WNW 19 28 - - - - - - - 11.6 1003.9 0.2
18/09:00pm WNW 19 26 - - - - - - - 11.4 1003.7 0.2
18/08:30pm NW 20 27 - - - - - - - 11.3 1003.5 0.2
18/08:00pm NW 18 24 - - - - - - - 11.5 1003.5 0.2
18/07:30pm WNW 16 24 - - - - - - - 11.6 1003.5 0.2
18/07:01pm WNW 18 28 - - - - - - - 11.9 1002.9 0.2
18/07:00pm WNW 19 28 - - - - - - - 11.8 1002.9 0.2
18/06:38pm NW 20 32 - - - - - - - 12.6 1002.1 0.2
18/06:30pm NW 20 29 - - - - - - - 12.7 1002.0 0.2
18/06:00pm NW 19 30 - - - - - - - 12.6 1002.0 0.2
18/05:30pm NW 22 33 - - - - - - - 12.8 1001.6 0.2
18/05:16pm NW 24 35 - - - - - - - 13.4 1001.4 0.2
18/05:00pm NW 24 33 - - - - - - - 13.5 1001.2 0.2
18/04:30pm NW 25 35 - - - - - - - 13.9 1000.9 0.2
18/04:00pm NW 28 38 - - - - - - - 14.6 1000.4 0.2
18/03:30pm NW 29 41 - - - - - - - 14.6 1000.3 0.2
18/03:00pm NW 29 41 - - - - - - - 14.5 1000.4 0.2
18/02:38pm NW 29 40 - - - - - - - 14.7 1000.5 0.2
18/02:30pm NW 28 37 - - - - - - - 14.6 1000.4 0.2
18/02:00pm NNW 23 41 - - - - - - - 14.0 1000.7 0.2
18/01:40pm NNW 22 33 - - - - - - - 13.9 1000.7 0.2
18/01:30pm NNW 23 31 - - - - - - - 13.7 1000.8 0.2
18/01:05pm NW 24 34 - - - - - - - 13.7 1001.0 0.2
18/01:00pm NW 25 34 - - - - - - - 13.7 1001.0 0.2
18/12:44pm NW 31 46 - - - - - - - 13.0 1001.3 0.2
18/12:43pm NW 32 48 - - - - - - - 13.0 1001.4 0.2
18/12:36pm NW 30 48 - - - - - - - 13.7 1001.5 0.2
18/12:35pm NW 29 48 - - - - - - - 13.9 1001.4 0.2
18/12:33pm NW 25 48 - - - - - - - 14.1 1001.5 0.2
18/12:30pm NNW 23 33 - - - - - - - 14.0 1001.5 0.0
18/12:00pm NNW 19 29 - - - - - - - 13.5 1001.6 0.0
18/11:30am NNW 22 29 - - - - - - - 14.0 1002.3 0.0
18/11:00am NNW 22 28 - - - - - - - 13.1 1002.4 0.0
18/10:30am NNW 22 29 - - - - - - - 13.5 1002.5 0.0
18/10:00am NNW 25 35 - - - - - - - 13.6 1002.8 0.0
18/09:55am NNW 25 35 - - - - - - - 13.7 1002.8 0.0
18/09:30am NNW 24 30 - - - - - - - 13.7 1003.2 0.0
18/09:00am NNW 21 27 - - - - - - - 13.5 1003.3 0.8
18/08:30am NNW 22 31 - - - - - - - 12.9 1003.7 0.8
18/08:11am NW 25 36 - - - - - - - 12.7 1003.9 0.8
18/08:00am NNW 23 31 - - - - - - - 12.3 1004.1 0.8
18/07:41am NNW 21 31 - - - - - - - 11.9 1004.6 0.8
18/07:30am NNW 21 26 - - - - - - - 11.9 1004.7 0.8
18/07:00am NNW 24 35 - - - - - - - 11.7 1004.8 0.8
18/06:59am NNW 23 33 - - - - - - - 11.7 1004.9 0.8
18/06:30am NNW 23 29 - - - - - - - 11.6 1005.0 0.8
18/06:00am NNW 22 29 - - - - - - Recent precip. 11.6 1004.8 0.8
18/05:30am NW 22 31 - - - - - - - 11.5 1005.5 0.6
18/05:13am NNW 21 33 - - - - - - - 11.5 1005.7 0.6
18/05:00am NNW 20 27 - - - - - - - 11.6 1005.8 0.4
18/04:30am NNW 19 26 - - - - - - - 11.8 1006.1 0.2
18/04:00am NNW 21 26 - - - - - - - 12.1 1006.5 0.0
18/03:30am NNW 19 25 - - - - - - - 12.2 1006.6 0.0
18/03:00am NNW 20 26 - - - - - - - 12.0 1006.8 0.0
18/02:30am NNW 21 27 - - - - - - - 12.1 1007.6 0.0
18/02:00am NNW 16 23 - - - - - - - 12.1 1008.2 0.0
18/01:54am NNW 17 27 - - - - - - - 12.1 1008.2 0.0
18/01:30am NNW 16 23 - - - - - - - 11.9 1008.1 0.0
18/01:00am NW 13 17 - - - - - - - 11.4 1009.0 0.0
18/12:30am NNW 17 23 - - - - - - - 11.5 1009.2 0.0
18/12:00am NNW 20 25 - - - - - - - 11.7 1009.6 0.0
 
Date/Time
EST
Wind Sea
Height
m
Swell Vis
km
Cloud Weather Temp
°C
Press
MSL
hPa
Rain since
9am
mm
Dir  Spd
kts
Gust
kts
Height
m
Period
s
Dir
17/11:30pm NNW 15 20 - - - - - - - 11.3 1010.5 0.0
17/11:00pm NNW 18 22 - - - - - - - 11.2 1010.6 0.0
17/10:30pm NNW 17 22 - - - - - - - 11.3 1010.9 0.0
17/10:00pm NNW 17 23 - - - - - - - 11.4 1011.3 0.0
17/09:30pm NNW 14 19 - - - - - - - 11.1 1011.5 0.0
17/09:00pm NNW 12 16 - - - - - - - 10.7 1011.6 0.0
17/08:30pm NW 15 19 - - - - - - - 10.7 1011.9 0.0
17/08:00pm NW 15 20 - - - - - - - 10.6 1012.2 0.0
17/07:30pm NW 13 17 - - - - - - - 10.3 1012.4 0.0
17/07:00pm NW 13 17 - - - - - - - 10.1 1012.5 0.0
17/06:30pm NW 15 21 - - - - - - - 10.3 1013.1 0.0
17/06:00pm NW 14 20 - - - - - - - 10.6 1013.1 0.0
17/05:30pm NW 14 19 - - - - - - - 10.8 1012.9 0.0
17/05:00pm NW 12 18 - - - - - - - 11.2 1012.8 0.0
17/04:30pm NW 13 17 - - - - - - - 11.3 1013.2 0.0
17/04:00pm NW 15 20 - - - - - - - 11.4 1013.1 0.0
17/03:30pm NW 16 22 - - - - - - - 11.5 1013.4 0.0
17/03:00pm NW 15 21 - - - - - - - 11.6 1014.0 0.0
17/02:30pm NW 13 18 - - - - - - - 11.8 1014.2 0.0
17/02:00pm NW 15 22 - - - - - - - 11.7 1014.6 0.0
17/01:30pm NW 15 20 - - - - - - - 11.7 1014.9 0.0
17/01:00pm NW 14 18 - - - - - - - 11.8 1015.3 0.0
17/12:30pm NW 14 19 - - - - - - - 12.1 1016.0 0.0
17/12:00pm NW 15 20 - - - - - - - 13.5 1016.4 0.0
17/11:30am NNW 14 18 - - - - - - - 13.3 1016.8 0.0
17/11:00am NW 13 16 - - - - - - - 12.0 1017.1 0.0
17/10:30am NW 13 18 - - - - - - - 11.8 1017.1 0.0
17/10:00am NW 11 14 - - - - - - - 12.1 1017.4 0.0
17/09:30am N 10 12 - - - - - - - 11.6 1017.5 0.0
17/09:00am NNW 6 9 - - - - - - Recent precip. 11.3 1017.3 0.2
17/08:30am N 4 7 - - - - - - - 11.2 1017.5 0.0
17/08:00am WNW 5 6 - - - - - - - 10.4 1017.4 0.0
17/07:30am W 3 6 - - - - - - - 10.2 1017.3 0.0
17/07:00am WSW 4 5 - - - - - - - 9.5 1016.9 0.0
17/06:30am WNW 5 6 - - - - - - - 9.1 1016.8 0.0
17/06:00am WNW 5 6 - - - - - - - 9.4 1016.5 0.0
17/05:30am W 5 7 - - - - - - - 9.1 1016.4 0.0
17/05:00am W 5 6 - - - - - - - 9.1 1016.4 0.0
17/04:30am WSW 5 6 - - - - - - - 9.0 1015.9 0.0
17/04:00am SW 4 5 - - - - - - - 9.0 1015.2 0.0
17/03:30am WSW 3 4 - - - - - - - 9.5 1015.1 0.0
17/03:00am S 5 7 - - - - - - - 9.8 1014.9 0.0
17/02:30am SSE 8 11 - - - - - - - 10.4 1014.7 0.0
17/02:00am S 6 8 - - - - - - - 9.6 1014.5 0.0
17/01:30am SSW 8 9 - - - - - - - 9.9 1014.9 0.0
17/01:00am S 11 14 - - - - - - - 10.8 1014.5 0.0
17/12:30am S 9 12 - - - - - - - 10.6 1014.3 0.0
17/12:00am S 11 14 - - - - - - - 10.6 1014.1 0.0
 
Date/Time
EST
Wind Sea
Height
m
Swell Vis
km
Cloud Weather Temp
°C
Press
MSL
hPa
Rain since
9am
mm
Dir  Spd
kts
Gust
kts
Height
m
Period
s
Dir
16/11:30pm S 8 9 - - - - - - - 9.9 1014.0 0.0
16/11:00pm S 8 10 - - - - - - - 11.0 1014.1 0.0
16/10:30pm SSE 8 10 - - - - - - - 11.6 1014.2 0.0
16/10:00pm SE 9 11 - - - - - - - 11.5 1014.4 0.0
16/09:30pm SSE 5 6 - - - - - - - 11.2 1014.5 0.0
16/09:00pm SSW 3 4 - - - - - - - 11.6 1013.8 0.0
16/08:30pm SW 3 5 - - - - - - - 11.5 1013.6 0.0
16/08:00pm SSW 5 7 - - - - - - - 11.7 1013.1 0.0
16/07:30pm SSW 5 6 - - - - - - - 11.9 1012.4 0.0
16/07:00pm NE 3 4 - - - - - - - 12.0 1011.6 0.0
16/06:30pm NE 4 5 - - - - - - - 11.9 1010.7 0.0
16/06:00pm NNW 4 4 - - - - - - - 12.4 1010.2 0.0
16/05:30pm E 4 5 - - - - - - - 13.0 1009.7 0.0
16/05:00pm SE 7 8 - - - - - - - 13.5 1009.2 0.0
16/04:30pm WSW 9 11 - - - - - - - 14.2 1008.7 0.0
16/04:00pm WNW 9 14 - - - - - - - 14.4 1008.1 0.0
16/03:30pm WNW 9 11 - - - - - - - 14.7 1007.6 0.0
16/03:00pm N 8 10 - - - - - - - 13.7 1007.6 0.0
16/02:30pm N 9 11 - - - - - - - 15.0 1007.5 0.0
16/02:00pm N 9 11 - - - - - - - 15.0 1007.1 0.0
16/01:30pm N 7 9 - - - - - - - 15.2 1006.5 0.0
16/01:00pm NNE 5 8 - - - - - - - 15.4 1006.3 0.0
16/12:30pm SE 4 5 - - - - - - - 16.3 1006.2 0.0
16/12:00pm SSE 3 5 - - - - - - - 15.4 1006.4 0.0
16/11:30am S 4 5 - - - - - - - 14.5 1006.4 0.0
16/11:00am SSW 5 6 - - - - - - - 14.2 1006.5 0.0
16/10:30am SSW 5 6 - - - - - - - 12.6 1005.9 0.0
16/10:00am SSW 7 8 - - - - - - - 11.5 1005.4 0.0
16/09:30am SSW 12 14 - - - - - - - 11.3 1004.9 0.0
16/09:00am SW 9 11 - - - - - - - 10.9 1004.3 12.2

Other formats

Comma delimited format used in spreadsheet applications
http://www.bom.gov.au/fwo/IDT60701/IDT60701.94983.axf

JavaScript Object Notation format (JSON) in row-major order
http://www.bom.gov.au/fwo/IDT60701/IDT60701.94983.json

Data quality

Most of these data are generated automatically and are frequently updated. Quality checks on data are not normally performed. It is possible for incorrect values to appear. Refer to information at About Latest Weather Observations and please check the disclaimer before using these data.